sensor_id;sensor_type;location;lat;lon;timestamp;P1;durP1;ratioP1;P2;durP2;ratioP2
34236;SDS011;20501;45.956;13.632;2023-03-03T00:01:07;26.58;;;14.57;;
34236;SDS011;20501;45.956;13.632;2023-03-03T00:03:32;28.75;;;15.27;;
34236;SDS011;20501;45.956;13.632;2023-03-03T00:05:58;26.05;;;14.55;;
34236;SDS011;20501;45.956;13.632;2023-03-03T00:08:24;25.90;;;13.38;;
34236;SDS011;20501;45.956;13.632;2023-03-03T00:10:50;27.77;;;14.35;;
34236;SDS011;20501;45.956;13.632;2023-03-03T00:13:20;29.77;;;14.70;;
34236;SDS011;20501;45.956;13.632;2023-03-03T00:15:48;23.13;;;13.35;;
34236;SDS011;20501;45.956;13.632;2023-03-03T00:20:53;29.83;;;14.68;;
34236;SDS011;20501;45.956;13.632;2023-03-03T00:25:53;25.55;;;12.70;;
34236;SDS011;20501;45.956;13.632;2023-03-03T00:28:27;26.70;;;14.80;;
34236;SDS011;20501;45.956;13.632;2023-03-03T00:31:20;25.35;;;12.63;;
34236;SDS011;20501;45.956;13.632;2023-03-03T00:36:48;27.67;;;13.15;;
34236;SDS011;20501;45.956;13.632;2023-03-03T00:41:59;23.60;;;12.68;;
34236;SDS011;20501;45.956;13.632;2023-03-03T00:49:43;23.52;;;11.73;;
34236;SDS011;20501;45.956;13.632;2023-03-03T00:52:13;22.80;;;12.38;;
34236;SDS011;20501;45.956;13.632;2023-03-03T00:54:41;22.42;;;12.55;;
34236;SDS011;20501;45.956;13.632;2023-03-03T00:57:06;27.38;;;12.55;;
34236;SDS011;20501;45.956;13.632;2023-03-03T00:59:32;27.80;;;13.77;;
34236;SDS011;20501;45.956;13.632;2023-03-03T01:01:57;23.25;;;12.00;;
34236;SDS011;20501;45.956;13.632;2023-03-03T01:04:23;25.17;;;13.38;;
34236;SDS011;20501;45.956;13.632;2023-03-03T01:06:48;23.17;;;12.52;;
34236;SDS011;20501;45.956;13.632;2023-03-03T01:09:14;23.40;;;12.63;;
34236;SDS011;20501;45.956;13.632;2023-03-03T01:11:39;28.95;;;13.38;;
34236;SDS011;20501;45.956;13.632;2023-03-03T01:14:05;26.70;;;13.00;;
34236;SDS011;20501;45.956;13.632;2023-03-03T01:16:30;24.67;;;13.40;;
34236;SDS011;20501;45.956;13.632;2023-03-03T01:18:56;24.25;;;11.90;;
34236;SDS011;20501;45.956;13.632;2023-03-03T01:21:22;24.45;;;11.82;;
34236;SDS011;20501;45.956;13.632;2023-03-03T01:23:47;28.23;;;13.07;;
34236;SDS011;20501;45.956;13.632;2023-03-03T01:26:13;25.23;;;14.10;;
34236;SDS011;20501;45.956;13.632;2023-03-03T01:28:38;21.35;;;11.98;;
34236;SDS011;20501;45.956;13.632;2023-03-03T01:31:04;25.25;;;12.60;;
34236;SDS011;20501;45.956;13.632;2023-03-03T01:33:30;26.65;;;12.35;;
34236;SDS011;20501;45.956;13.632;2023-03-03T01:35:57;24.20;;;13.07;;
34236;SDS011;20501;45.956;13.632;2023-03-03T01:38:23;23.85;;;12.90;;
34236;SDS011;20501;45.956;13.632;2023-03-03T01:40:55;20.65;;;12.00;;
34236;SDS011;20501;45.956;13.632;2023-03-03T01:43:22;18.60;;;10.70;;
34236;SDS011;20501;45.956;13.632;2023-03-03T01:48:22;19.92;;;11.02;;
34236;SDS011;20501;45.956;13.632;2023-03-03T01:53:45;24.27;;;10.80;;
34236;SDS011;20501;45.956;13.632;2023-03-03T01:56:15;23.38;;;10.65;;
34236;SDS011;20501;45.956;13.632;2023-03-03T01:59:02;18.30;;;10.73;;
34236;SDS011;20501;45.956;13.632;2023-03-03T02:01:30;24.50;;;11.15;;
34236;SDS011;20501;45.956;13.632;2023-03-03T02:03:57;20.33;;;10.18;;
34236;SDS011;20501;45.956;13.632;2023-03-03T02:06:24;20.58;;;11.27;;
34236;SDS011;20501;45.956;13.632;2023-03-03T02:09:02;19.48;;;10.88;;
34236;SDS011;20501;45.956;13.632;2023-03-03T02:11:33;18.33;;;9.57;;
34236;SDS011;20501;45.956;13.632;2023-03-03T02:14:01;18.00;;;9.80;;
34236;SDS011;20501;45.956;13.632;2023-03-03T02:16:27;19.75;;;10.27;;
34236;SDS011;20501;45.956;13.632;2023-03-03T02:18:53;17.52;;;9.95;;
34236;SDS011;20501;45.956;13.632;2023-03-03T02:21:19;15.35;;;9.30;;
34236;SDS011;20501;45.956;13.632;2023-03-03T02:24:07;19.10;;;10.38;;
34236;SDS011;20501;45.956;13.632;2023-03-03T02:26:40;18.50;;;9.25;;
34236;SDS011;20501;45.956;13.632;2023-03-03T02:29:07;20.42;;;9.82;;
34236;SDS011;20501;45.956;13.632;2023-03-03T02:31:34;15.90;;;8.85;;
34236;SDS011;20501;45.956;13.632;2023-03-03T02:34:00;18.25;;;10.00;;
34236;SDS011;20501;45.956;13.632;2023-03-03T02:36:29;16.88;;;9.40;;
34236;SDS011;20501;45.956;13.632;2023-03-03T02:39:06;15.52;;;8.98;;
34236;SDS011;20501;45.956;13.632;2023-03-03T02:41:39;16.80;;;9.18;;
34236;SDS011;20501;45.956;13.632;2023-03-03T02:44:17;14.07;;;8.27;;
34236;SDS011;20501;45.956;13.632;2023-03-03T02:46:48;14.05;;;8.10;;
34236;SDS011;20501;45.956;13.632;2023-03-03T02:49:17;16.38;;;8.60;;
34236;SDS011;20501;45.956;13.632;2023-03-03T02:51:44;16.08;;;8.52;;
34236;SDS011;20501;45.956;13.632;2023-03-03T02:54:11;17.77;;;9.50;;
34236;SDS011;20501;45.956;13.632;2023-03-03T02:56:37;14.30;;;8.35;;
34236;SDS011;20501;45.956;13.632;2023-03-03T02:59:03;14.25;;;7.78;;
34236;SDS011;20501;45.956;13.632;2023-03-03T03:01:29;15.93;;;8.32;;
34236;SDS011;20501;45.956;13.632;2023-03-03T03:03:56;12.63;;;7.90;;
34236;SDS011;20501;45.956;13.632;2023-03-03T03:06:22;11.60;;;7.47;;
34236;SDS011;20501;45.956;13.632;2023-03-03T03:08:48;18.30;;;10.38;;
34236;SDS011;20501;45.956;13.632;2023-03-03T03:11:14;19.50;;;10.85;;
34236;SDS011;20501;45.956;13.632;2023-03-03T03:13:39;13.68;;;7.97;;
34236;SDS011;20501;45.956;13.632;2023-03-03T03:16:05;14.10;;;8.07;;
34236;SDS011;20501;45.956;13.632;2023-03-03T03:18:30;13.60;;;8.13;;
34236;SDS011;20501;45.956;13.632;2023-03-03T03:20:56;14.07;;;7.72;;
34236;SDS011;20501;45.956;13.632;2023-03-03T03:23:21;13.13;;;8.07;;
34236;SDS011;20501;45.956;13.632;2023-03-03T03:25:47;16.60;;;10.48;;
34236;SDS011;20501;45.956;13.632;2023-03-03T03:28:13;13.60;;;8.15;;
34236;SDS011;20501;45.956;13.632;2023-03-03T03:30:41;14.55;;;8.57;;
34236;SDS011;20501;45.956;13.632;2023-03-03T03:35:34;14.80;;;9.05;;
34236;SDS011;20501;45.956;13.632;2023-03-03T03:38:00;16.23;;;8.93;;
34236;SDS011;20501;45.956;13.632;2023-03-03T03:40:26;15.70;;;9.30;;
34236;SDS011;20501;45.956;13.632;2023-03-03T03:42:52;15.55;;;8.75;;
34236;SDS011;20501;45.956;13.632;2023-03-03T03:45:18;14.13;;;8.43;;
34236;SDS011;20501;45.956;13.632;2023-03-03T03:47:44;13.23;;;8.15;;
34236;SDS011;20501;45.956;13.632;2023-03-03T03:50:09;14.15;;;8.35;;
34236;SDS011;20501;45.956;13.632;2023-03-03T03:52:35;12.30;;;7.85;;
34236;SDS011;20501;45.956;13.632;2023-03-03T03:55:01;16.00;;;9.00;;
34236;SDS011;20501;45.956;13.632;2023-03-03T03:57:27;16.77;;;9.98;;
34236;SDS011;20501;45.956;13.632;2023-03-03T03:59:52;14.68;;;8.85;;
34236;SDS011;20501;45.956;13.632;2023-03-03T04:02:18;14.40;;;8.55;;
34236;SDS011;20501;45.956;13.632;2023-03-03T04:04:43;15.27;;;9.02;;
34236;SDS011;20501;45.956;13.632;2023-03-03T04:07:09;14.48;;;8.90;;
34236;SDS011;20501;45.956;13.632;2023-03-03T04:09:34;14.73;;;8.93;;
34236;SDS011;20501;45.956;13.632;2023-03-03T04:12:00;18.63;;;9.13;;
34236;SDS011;20501;45.956;13.632;2023-03-03T04:14:25;14.00;;;8.75;;
34236;SDS011;20501;45.956;13.632;2023-03-03T04:16:51;14.23;;;8.25;;
34236;SDS011;20501;45.956;13.632;2023-03-03T04:19:16;13.02;;;7.85;;
34236;SDS011;20501;45.956;13.632;2023-03-03T04:21:42;12.48;;;8.55;;
34236;SDS011;20501;45.956;13.632;2023-03-03T04:24:07;14.07;;;8.63;;
34236;SDS011;20501;45.956;13.632;2023-03-03T04:26:33;13.82;;;8.55;;
34236;SDS011;20501;45.956;13.632;2023-03-03T04:28:58;15.35;;;8.80;;
34236;SDS011;20501;45.956;13.632;2023-03-03T04:31:24;15.68;;;8.98;;
34236;SDS011;20501;45.956;13.632;2023-03-03T04:33:50;13.40;;;8.93;;
34236;SDS011;20501;45.956;13.632;2023-03-03T04:38:42;12.57;;;8.00;;
34236;SDS011;20501;45.956;13.632;2023-03-03T04:41:08;13.48;;;8.43;;
34236;SDS011;20501;45.956;13.632;2023-03-03T04:43:33;15.20;;;8.65;;
34236;SDS011;20501;45.956;13.632;2023-03-03T04:45:59;17.10;;;8.20;;
34236;SDS011;20501;45.956;13.632;2023-03-03T04:48:24;13.85;;;8.63;;
34236;SDS011;20501;45.956;13.632;2023-03-03T04:50:49;15.68;;;9.73;;
34236;SDS011;20501;45.956;13.632;2023-03-03T04:53:15;12.32;;;7.65;;
34236;SDS011;20501;45.956;13.632;2023-03-03T04:55:40;13.50;;;8.90;;
34236;SDS011;20501;45.956;13.632;2023-03-03T04:58:06;21.90;;;10.25;;
34236;SDS011;20501;45.956;13.632;2023-03-03T05:00:34;14.50;;;8.20;;
34236;SDS011;20501;45.956;13.632;2023-03-03T05:02:59;16.73;;;9.35;;
34236;SDS011;20501;45.956;13.632;2023-03-03T05:05:25;22.20;;;10.60;;
34236;SDS011;20501;45.956;13.632;2023-03-03T05:07:51;20.67;;;10.93;;
34236;SDS011;20501;45.956;13.632;2023-03-03T05:10:16;16.23;;;8.45;;
34236;SDS011;20501;45.956;13.632;2023-03-03T05:12:42;14.10;;;8.80;;
34236;SDS011;20501;45.956;13.632;2023-03-03T05:15:08;19.20;;;9.93;;
34236;SDS011;20501;45.956;13.632;2023-03-03T05:17:34;13.98;;;8.55;;
34236;SDS011;20501;45.956;13.632;2023-03-03T05:19:59;19.55;;;10.73;;
34236;SDS011;20501;45.956;13.632;2023-03-03T05:22:25;15.43;;;8.85;;
34236;SDS011;20501;45.956;13.632;2023-03-03T05:24:51;15.05;;;8.75;;
34236;SDS011;20501;45.956;13.632;2023-03-03T05:27:18;13.60;;;9.05;;
34236;SDS011;20501;45.956;13.632;2023-03-03T05:29:44;18.77;;;9.70;;
34236;SDS011;20501;45.956;13.632;2023-03-03T05:32:09;22.90;;;11.38;;
34236;SDS011;20501;45.956;13.632;2023-03-03T05:34:35;17.00;;;9.75;;
34236;SDS011;20501;45.956;13.632;2023-03-03T05:37:00;16.15;;;9.82;;
34236;SDS011;20501;45.956;13.632;2023-03-03T05:39:27;17.10;;;9.13;;
34236;SDS011;20501;45.956;13.632;2023-03-03T05:41:53;16.50;;;8.63;;
34236;SDS011;20501;45.956;13.632;2023-03-03T05:44:19;15.30;;;9.07;;
34236;SDS011;20501;45.956;13.632;2023-03-03T05:46:45;14.68;;;9.35;;
34236;SDS011;20501;45.956;13.632;2023-03-03T05:49:10;16.20;;;9.55;;
34236;SDS011;20501;45.956;13.632;2023-03-03T05:51:36;17.15;;;8.95;;
34236;SDS011;20501;45.956;13.632;2023-03-03T05:54:01;17.58;;;9.50;;
34236;SDS011;20501;45.956;13.632;2023-03-03T05:56:27;16.23;;;9.23;;
34236;SDS011;20501;45.956;13.632;2023-03-03T05:58:52;19.08;;;9.98;;
34236;SDS011;20501;45.956;13.632;2023-03-03T06:01:17;24.00;;;12.77;;
34236;SDS011;20501;45.956;13.632;2023-03-03T06:03:43;21.92;;;11.73;;
34236;SDS011;20501;45.956;13.632;2023-03-03T06:06:08;16.45;;;9.65;;
34236;SDS011;20501;45.956;13.632;2023-03-03T06:08:34;17.27;;;10.32;;
34236;SDS011;20501;45.956;13.632;2023-03-03T06:10:59;23.95;;;11.82;;
34236;SDS011;20501;45.956;13.632;2023-03-03T06:13:25;17.60;;;10.38;;
34236;SDS011;20501;45.956;13.632;2023-03-03T06:15:51;23.13;;;11.73;;
34236;SDS011;20501;45.956;13.632;2023-03-03T06:18:16;28.50;;;12.82;;
34236;SDS011;20501;45.956;13.632;2023-03-03T06:20:42;22.20;;;11.38;;
34236;SDS011;20501;45.956;13.632;2023-03-03T06:23:07;18.55;;;11.23;;
34236;SDS011;20501;45.956;13.632;2023-03-03T06:25:33;23.92;;;12.13;;
34236;SDS011;20501;45.956;13.632;2023-03-03T06:27:59;20.25;;;11.38;;
34236;SDS011;20501;45.956;13.632;2023-03-03T06:30:25;21.13;;;10.73;;
34236;SDS011;20501;45.956;13.632;2023-03-03T06:32:52;20.00;;;11.15;;
34236;SDS011;20501;45.956;13.632;2023-03-03T06:35:18;18.40;;;10.27;;
34236;SDS011;20501;45.956;13.632;2023-03-03T06:37:43;18.77;;;11.15;;
34236;SDS011;20501;45.956;13.632;2023-03-03T06:40:09;20.15;;;12.00;;
34236;SDS011;20501;45.956;13.632;2023-03-03T06:42:35;18.63;;;11.30;;
34236;SDS011;20501;45.956;13.632;2023-03-03T06:45:00;21.80;;;11.00;;
34236;SDS011;20501;45.956;13.632;2023-03-03T06:47:26;29.65;;;13.00;;
34236;SDS011;20501;45.956;13.632;2023-03-03T06:49:51;17.30;;;10.20;;
34236;SDS011;20501;45.956;13.632;2023-03-03T06:52:18;16.23;;;10.43;;
34236;SDS011;20501;45.956;13.632;2023-03-03T06:54:46;32.22;;;16.25;;
34236;SDS011;20501;45.956;13.632;2023-03-03T06:57:16;21.55;;;10.63;;
34236;SDS011;20501;45.956;13.632;2023-03-03T06:59:48;23.50;;;12.82;;
34236;SDS011;20501;45.956;13.632;2023-03-03T07:02:17;24.23;;;14.02;;
34236;SDS011;20501;45.956;13.632;2023-03-03T07:04:44;47.38;;;22.52;;
34236;SDS011;20501;45.956;13.632;2023-03-03T07:09:43;22.50;;;13.20;;
34236;SDS011;20501;45.956;13.632;2023-03-03T07:12:10;36.85;;;17.88;;
34236;SDS011;20501;45.956;13.632;2023-03-03T07:14:42;34.03;;;16.80;;
34236;SDS011;20501;45.956;13.632;2023-03-03T07:17:14;25.52;;;14.00;;
34236;SDS011;20501;45.956;13.632;2023-03-03T07:19:42;25.42;;;15.48;;
34236;SDS011;20501;45.956;13.632;2023-03-03T07:22:23;27.05;;;14.43;;
34236;SDS011;20501;45.956;13.632;2023-03-03T07:24:52;35.55;;;16.83;;
34236;SDS011;20501;45.956;13.632;2023-03-03T07:27:23;31.27;;;15.68;;
34236;SDS011;20501;45.956;13.632;2023-03-03T07:29:51;22.30;;;14.68;;
34236;SDS011;20501;45.956;13.632;2023-03-03T07:32:27;23.90;;;13.85;;
34236;SDS011;20501;45.956;13.632;2023-03-03T07:35:19;30.50;;;16.08;;
34236;SDS011;20501;45.956;13.632;2023-03-03T07:38:02;26.50;;;15.52;;
34236;SDS011;20501;45.956;13.632;2023-03-03T07:40:45;45.75;;;23.05;;
34236;SDS011;20501;45.956;13.632;2023-03-03T07:46:28;45.17;;;21.20;;
34236;SDS011;20501;45.956;13.632;2023-03-03T07:49:01;43.50;;;20.95;;
34236;SDS011;20501;45.956;13.632;2023-03-03T07:51:40;31.08;;;17.35;;
34236;SDS011;20501;45.956;13.632;2023-03-03T07:57:06;37.85;;;19.33;;
34236;SDS011;20501;45.956;13.632;2023-03-03T07:59:49;35.95;;;16.85;;
34236;SDS011;20501;45.956;13.632;2023-03-03T08:08:36;23.98;;;14.10;;
34236;SDS011;20501;45.956;13.632;2023-03-03T08:10:53;25.20;;;14.57;;
34236;SDS011;20501;45.956;13.632;2023-03-03T08:13:21;25.48;;;14.88;;
34236;SDS011;20501;45.956;13.632;2023-03-03T08:16:03;26.60;;;14.57;;
34236;SDS011;20501;45.956;13.632;2023-03-03T08:18:49;22.60;;;13.68;;
34236;SDS011;20501;45.956;13.632;2023-03-03T08:23:43;22.48;;;13.15;;
34236;SDS011;20501;45.956;13.632;2023-03-03T08:26:09;19.13;;;11.43;;
34236;SDS011;20501;45.956;13.632;2023-03-03T08:28:36;20.88;;;12.25;;
34236;SDS011;20501;45.956;13.632;2023-03-03T08:31:02;17.38;;;9.73;;
34236;SDS011;20501;45.956;13.632;2023-03-03T08:33:28;19.75;;;10.95;;
34236;SDS011;20501;45.956;13.632;2023-03-03T08:35:54;20.05;;;11.27;;
34236;SDS011;20501;45.956;13.632;2023-03-03T08:38:20;16.98;;;8.55;;
34236;SDS011;20501;45.956;13.632;2023-03-03T08:40:46;15.30;;;8.82;;
34236;SDS011;20501;45.956;13.632;2023-03-03T08:43:12;16.77;;;9.70;;
34236;SDS011;20501;45.956;13.632;2023-03-03T08:45:41;21.55;;;10.23;;
34236;SDS011;20501;45.956;13.632;2023-03-03T08:48:09;16.10;;;9.55;;
34236;SDS011;20501;45.956;13.632;2023-03-03T08:50:34;16.10;;;8.27;;
34236;SDS011;20501;45.956;13.632;2023-03-03T08:53:01;18.48;;;9.88;;
34236;SDS011;20501;45.956;13.632;2023-03-03T08:55:27;17.20;;;9.70;;
34236;SDS011;20501;45.956;13.632;2023-03-03T08:57:52;17.50;;;10.48;;
34236;SDS011;20501;45.956;13.632;2023-03-03T09:00:18;17.75;;;8.93;;
34236;SDS011;20501;45.956;13.632;2023-03-03T09:02:44;17.67;;;9.32;;
34236;SDS011;20501;45.956;13.632;2023-03-03T09:05:10;14.40;;;8.82;;
34236;SDS011;20501;45.956;13.632;2023-03-03T09:07:36;19.00;;;9.70;;
34236;SDS011;20501;45.956;13.632;2023-03-03T09:10:03;31.02;;;14.95;;
34236;SDS011;20501;45.956;13.632;2023-03-03T09:12:31;29.30;;;14.60;;
34236;SDS011;20501;45.956;13.632;2023-03-03T09:14:59;26.40;;;12.77;;
34236;SDS011;20501;45.956;13.632;2023-03-03T09:17:38;26.00;;;11.77;;
34236;SDS011;20501;45.956;13.632;2023-03-03T09:20:16;15.70;;;8.43;;
34236;SDS011;20501;45.956;13.632;2023-03-03T09:22:56;15.35;;;9.02;;
34236;SDS011;20501;45.956;13.632;2023-03-03T09:27:52;15.38;;;8.80;;
34236;SDS011;20501;45.956;13.632;2023-03-03T09:32:50;15.77;;;8.32;;
34236;SDS011;20501;45.956;13.632;2023-03-03T09:35:36;14.07;;;8.02;;
34236;SDS011;20501;45.956;13.632;2023-03-03T09:43:38;15.38;;;8.68;;
34236;SDS011;20501;45.956;13.632;2023-03-03T09:49:31;22.00;;;12.65;;
34236;SDS011;20501;45.956;13.632;2023-03-03T09:52:25;25.02;;;12.95;;
34236;SDS011;20501;45.956;13.632;2023-03-03T10:00:41;16.25;;;9.80;;
34236;SDS011;20501;45.956;13.632;2023-03-03T10:06:44;20.13;;;9.57;;
34236;SDS011;20501;45.956;13.632;2023-03-03T10:17:24;16.20;;;9.43;;
34236;SDS011;20501;45.956;13.632;2023-03-03T10:26:16;16.33;;;8.85;;
34236;SDS011;20501;45.956;13.632;2023-03-03T10:48:32;13.35;;;7.05;;
34236;SDS011;20501;45.956;13.632;2023-03-03T10:53:48;17.17;;;7.50;;
34236;SDS011;20501;45.956;13.632;2023-03-03T11:07:36;11.57;;;6.80;;
34236;SDS011;20501;45.956;13.632;2023-03-03T11:10:21;12.60;;;7.25;;
34236;SDS011;20501;45.956;13.632;2023-03-03T11:18:27;12.95;;;7.13;;
34236;SDS011;20501;45.956;13.632;2023-03-03T11:24:18;10.90;;;7.35;;
34236;SDS011;20501;45.956;13.632;2023-03-03T11:37:45;10.68;;;6.60;;
34236;SDS011;20501;45.956;13.632;2023-03-03T11:40:22;14.77;;;8.40;;
34236;SDS011;20501;45.956;13.632;2023-03-03T11:45:45;9.55;;;6.70;;
34236;SDS011;20501;45.956;13.632;2023-03-03T11:56:58;10.57;;;6.20;;
34236;SDS011;20501;45.956;13.632;2023-03-03T11:59:41;11.20;;;6.53;;
34236;SDS011;20501;45.956;13.632;2023-03-03T12:02:15;10.52;;;5.97;;
34236;SDS011;20501;45.956;13.632;2023-03-03T12:04:53;10.48;;;6.07;;
34236;SDS011;20501;45.956;13.632;2023-03-03T12:21:05;11.15;;;6.40;;
34236;SDS011;20501;45.956;13.632;2023-03-03T12:26:23;11.50;;;6.40;;
34236;SDS011;20501;45.956;13.632;2023-03-03T12:29:12;10.32;;;6.38;;
34236;SDS011;20501;45.956;13.632;2023-03-03T12:35:01;8.60;;;5.55;;
34236;SDS011;20501;45.956;13.632;2023-03-03T12:37:51;8.93;;;5.57;;
34236;SDS011;20501;45.956;13.632;2023-03-03T12:40:24;8.50;;;5.82;;
34236;SDS011;20501;45.956;13.632;2023-03-03T12:43:00;9.45;;;5.28;;
34236;SDS011;20501;45.956;13.632;2023-03-03T12:48:38;8.80;;;5.55;;
34236;SDS011;20501;45.956;13.632;2023-03-03T12:53:51;9.13;;;6.00;;
34236;SDS011;20501;45.956;13.632;2023-03-03T12:56:26;8.75;;;5.20;;
34236;SDS011;20501;45.956;13.632;2023-03-03T13:05:01;8.30;;;5.07;;
34236;SDS011;20501;45.956;13.632;2023-03-03T13:07:46;8.30;;;5.15;;
34236;SDS011;20501;45.956;13.632;2023-03-03T13:10:19;9.02;;;5.50;;
34236;SDS011;20501;45.956;13.632;2023-03-03T13:12:56;8.63;;;4.97;;
34236;SDS011;20501;45.956;13.632;2023-03-03T13:15:27;7.78;;;5.38;;
34236;SDS011;20501;45.956;13.632;2023-03-03T13:26:10;10.93;;;5.85;;
34236;SDS011;20501;45.956;13.632;2023-03-03T13:31:21;10.05;;;5.30;;
34236;SDS011;20501;45.956;13.632;2023-03-03T13:33:53;8.93;;;5.28;;
34236;SDS011;20501;45.956;13.632;2023-03-03T13:36:21;8.35;;;5.20;;
34236;SDS011;20501;45.956;13.632;2023-03-03T13:38:52;8.30;;;5.53;;
34236;SDS011;20501;45.956;13.632;2023-03-03T13:43:56;9.20;;;5.30;;
34236;SDS011;20501;45.956;13.632;2023-03-03T13:51:50;6.97;;;4.25;;
34236;SDS011;20501;45.956;13.632;2023-03-03T14:05:49;10.43;;;5.15;;
34236;SDS011;20501;45.956;13.632;2023-03-03T14:11:18;8.02;;;4.80;;
34236;SDS011;20501;45.956;13.632;2023-03-03T14:13:55;9.40;;;4.97;;
34236;SDS011;20501;45.956;13.632;2023-03-03T14:19:47;16.23;;;6.45;;
34236;SDS011;20501;45.956;13.632;2023-03-03T14:22:25;12.40;;;6.28;;
34236;SDS011;20501;45.956;13.632;2023-03-03T14:25:05;15.77;;;6.22;;
34236;SDS011;20501;45.956;13.632;2023-03-03T14:27:36;9.15;;;5.20;;
34236;SDS011;20501;45.956;13.632;2023-03-03T14:33:22;14.25;;;6.85;;
34236;SDS011;20501;45.956;13.632;2023-03-03T14:38:45;11.20;;;6.20;;
34236;SDS011;20501;45.956;13.632;2023-03-03T14:43:42;12.40;;;6.88;;
34236;SDS011;20501;45.956;13.632;2023-03-03T14:49:14;13.88;;;7.22;;
34236;SDS011;20501;45.956;13.632;2023-03-03T14:51:52;11.52;;;6.47;;
34236;SDS011;20501;45.956;13.632;2023-03-03T14:57:02;13.95;;;7.40;;
34236;SDS011;20501;45.956;13.632;2023-03-03T14:59:55;15.60;;;7.40;;
34236;SDS011;20501;45.956;13.632;2023-03-03T15:02:26;11.90;;;6.55;;
34236;SDS011;20501;45.956;13.632;2023-03-03T15:07:50;11.20;;;6.22;;
34236;SDS011;20501;45.956;13.632;2023-03-03T15:10:29;14.63;;;7.43;;
34236;SDS011;20501;45.956;13.632;2023-03-03T15:12:58;12.90;;;7.40;;
34236;SDS011;20501;45.956;13.632;2023-03-03T15:18:13;11.60;;;6.55;;
34236;SDS011;20501;45.956;13.632;2023-03-03T15:26:05;12.70;;;6.80;;
34236;SDS011;20501;45.956;13.632;2023-03-03T15:42:14;12.35;;;6.85;;
34236;SDS011;20501;45.956;13.632;2023-03-03T16:05:28;21.70;;;10.55;;
34236;SDS011;20501;45.956;13.632;2023-03-03T16:07:59;28.98;;;10.60;;
34236;SDS011;20501;45.956;13.632;2023-03-03T16:10:57;20.35;;;8.70;;
34236;SDS011;20501;45.956;13.632;2023-03-03T16:24:31;12.73;;;7.43;;
34236;SDS011;20501;45.956;13.632;2023-03-03T16:27:22;12.50;;;7.07;;
34236;SDS011;20501;45.956;13.632;2023-03-03T16:30:14;16.08;;;7.40;;
34236;SDS011;20501;45.956;13.632;2023-03-03T16:38:39;10.80;;;6.28;;
34236;SDS011;20501;45.956;13.632;2023-03-03T16:41:18;11.48;;;6.68;;
34236;SDS011;20501;45.956;13.632;2023-03-03T16:44:20;18.43;;;8.57;;
34236;SDS011;20501;45.956;13.632;2023-03-03T16:46:52;13.68;;;6.72;;
34236;SDS011;20501;45.956;13.632;2023-03-03T16:49:32;14.68;;;6.97;;
34236;SDS011;20501;45.956;13.632;2023-03-03T16:52:07;16.75;;;8.43;;
34236;SDS011;20501;45.956;13.632;2023-03-03T16:54:46;17.05;;;8.75;;
34236;SDS011;20501;45.956;13.632;2023-03-03T17:00:39;10.93;;;5.90;;
34236;SDS011;20501;45.956;13.632;2023-03-03T17:06:38;10.88;;;6.13;;
34236;SDS011;20501;45.956;13.632;2023-03-03T17:23:34;11.63;;;6.85;;
34236;SDS011;20501;45.956;13.632;2023-03-03T17:26:01;14.38;;;8.38;;
34236;SDS011;20501;45.956;13.632;2023-03-03T17:36:49;19.08;;;10.07;;
34236;SDS011;20501;45.956;13.632;2023-03-03T17:42:36;16.17;;;8.43;;
34236;SDS011;20501;45.956;13.632;2023-03-03T17:45:24;18.05;;;10.23;;
34236;SDS011;20501;45.956;13.632;2023-03-03T17:50:38;13.38;;;8.43;;
34236;SDS011;20501;45.956;13.632;2023-03-03T17:55:51;16.60;;;9.13;;
34236;SDS011;20501;45.956;13.632;2023-03-03T18:12:38;20.42;;;11.90;;
34236;SDS011;20501;45.956;13.632;2023-03-03T18:34:39;33.70;;;19.50;;
34236;SDS011;20501;45.956;13.632;2023-03-03T18:42:37;42.05;;;22.95;;
34236;SDS011;20501;45.956;13.632;2023-03-03T18:50:32;36.92;;;21.17;;
34236;SDS011;20501;45.956;13.632;2023-03-03T18:55:46;48.42;;;28.00;;
34236;SDS011;20501;45.956;13.632;2023-03-03T19:06:11;50.55;;;27.13;;
34236;SDS011;20501;45.956;13.632;2023-03-03T19:08:55;39.97;;;21.40;;
34236;SDS011;20501;45.956;13.632;2023-03-03T19:16:55;31.15;;;19.67;;
34236;SDS011;20501;45.956;13.632;2023-03-03T19:19:31;34.65;;;21.20;;
34236;SDS011;20501;45.956;13.632;2023-03-03T19:25:24;45.58;;;25.48;;
34236;SDS011;20501;45.956;13.632;2023-03-03T19:39:23;38.90;;;21.77;;
34236;SDS011;20501;45.956;13.632;2023-03-03T19:52:41;40.15;;;21.08;;
34236;SDS011;20501;45.956;13.632;2023-03-03T20:06:14;40.70;;;24.33;;
34236;SDS011;20501;45.956;13.632;2023-03-03T20:08:53;36.90;;;22.05;;
34236;SDS011;20501;45.956;13.632;2023-03-03T20:14:49;68.00;;;35.78;;
34236;SDS011;20501;45.956;13.632;2023-03-03T20:23:03;62.83;;;35.10;;
34236;SDS011;20501;45.956;13.632;2023-03-03T20:28:11;52.22;;;28.77;;
34236;SDS011;20501;45.956;13.632;2023-03-03T20:33:31;64.75;;;32.50;;
34236;SDS011;20501;45.956;13.632;2023-03-03T20:36:26;72.72;;;37.67;;
34236;SDS011;20501;45.956;13.632;2023-03-03T20:39:15;50.22;;;28.63;;
34236;SDS011;20501;45.956;13.632;2023-03-03T20:52:57;57.05;;;30.08;;
34236;SDS011;20501;45.956;13.632;2023-03-03T20:58:09;68.65;;;30.42;;
34236;SDS011;20501;45.956;13.632;2023-03-03T21:06:07;51.97;;;26.52;;
34236;SDS011;20501;45.956;13.632;2023-03-03T21:08:41;55.33;;;27.23;;
34236;SDS011;20501;45.956;13.632;2023-03-03T21:11:39;46.20;;;24.67;;
34236;SDS011;20501;45.956;13.632;2023-03-03T21:14:16;49.92;;;26.73;;
34236;SDS011;20501;45.956;13.632;2023-03-03T21:19:11;48.78;;;25.98;;
34236;SDS011;20501;45.956;13.632;2023-03-03T21:21:46;42.50;;;23.40;;
34236;SDS011;20501;45.956;13.632;2023-03-03T21:29:14;43.97;;;24.23;;
34236;SDS011;20501;45.956;13.632;2023-03-03T21:31:44;45.00;;;23.50;;
34236;SDS011;20501;45.956;13.632;2023-03-03T21:34:18;48.90;;;26.30;;
34236;SDS011;20501;45.956;13.632;2023-03-03T21:36:47;40.70;;;22.98;;
34236;SDS011;20501;45.956;13.632;2023-03-03T21:39:26;41.95;;;22.05;;
34236;SDS011;20501;45.956;13.632;2023-03-03T21:44:43;41.88;;;21.75;;
34236;SDS011;20501;45.956;13.632;2023-03-03T21:47:14;45.35;;;23.05;;
34236;SDS011;20501;45.956;13.632;2023-03-03T21:49:41;40.83;;;22.58;;
34236;SDS011;20501;45.956;13.632;2023-03-03T21:52:08;47.72;;;23.30;;
34236;SDS011;20501;45.956;13.632;2023-03-03T21:54:35;43.90;;;23.52;;
34236;SDS011;20501;45.956;13.632;2023-03-03T21:57:00;47.15;;;22.98;;
34236;SDS011;20501;45.956;13.632;2023-03-03T21:59:26;42.22;;;22.70;;
34236;SDS011;20501;45.956;13.632;2023-03-03T22:01:51;42.28;;;22.75;;
34236;SDS011;20501;45.956;13.632;2023-03-03T22:04:16;65.32;;;28.77;;
34236;SDS011;20501;45.956;13.632;2023-03-03T22:06:42;53.35;;;27.33;;
34236;SDS011;20501;45.956;13.632;2023-03-03T22:09:07;58.53;;;28.23;;
34236;SDS011;20501;45.956;13.632;2023-03-03T22:11:33;48.33;;;24.40;;
34236;SDS011;20501;45.956;13.632;2023-03-03T22:13:59;52.00;;;25.40;;
34236;SDS011;20501;45.956;13.632;2023-03-03T22:16:24;50.83;;;25.42;;
34236;SDS011;20501;45.956;13.632;2023-03-03T22:18:50;47.05;;;23.00;;
34236;SDS011;20501;45.956;13.632;2023-03-03T22:21:15;46.63;;;24.23;;
34236;SDS011;20501;45.956;13.632;2023-03-03T22:23:41;60.42;;;28.95;;